KOCF/OCF METAR and TAF weather

Enter ICAO airport designator
Station Type Date Time Source
KOCF METAR 2020/09/18 05:51 UTC NOAA

KOCF 180551Z AUTO 23004KT 10SM SCT018 BKN025 BKN035 25/25 A2984 RMK AO2 SLP105 60001 T02500250 10256 20250 58006 $


Station Type Date Time Source
KOCF Decoded METAR 2020/09/18 05:51 UTC NOAA

Ocala, Ocala International Airport-Jim Taylor Field, FL, United States (KOCF) 29-10N 082-13W
Sep 18, 2020 - 01:51 AM EDT / 2020.09.18 0551 UTC
Wind: from the SW (230 degrees) at 5 MPH (4 KT):0
Visibility: 10 mile(s):0
Sky conditions: mostly cloudy
Temperature: 77.0 F (25.0 C)
Dew Point: 77.0 F (25.0 C)
Relative Humidity: 100%
Pressure (altimeter): 29.84 in. Hg (1010 hPa)
Pressure tendency: 0.02 inches (0.6 hPa) lower than three hours ago
ob: KOCF 180551Z AUTO 23004KT 10SM SCT018 BKN025 BKN035 25/25 A2984 RMK AO2 SLP105 60001 T02500250 10256 20250 58006
cycle: 6

Station Type Date Time Source
KOCF TAF UTC NOAA

Error!

Example: see airport list